Time;durP1;ratioP1;P1;durP2;ratioP2;P2;SDS_P1;SDS_P2;PMS_P1;PMS_P2;Temp;Humidity;BMP_temperature;BMP_pressure;BME280_temperature;BME280_humidity;BME280_pressure;Samples;Min_cycle;Max_cycle;Signal;HPM_P1;HPM_P2
2023/04/07 00:00:24;;;;;;;2.25;2.00;;;;;;;4.94;51.32;148550.25;5042725;28;20056;-66
2023/04/07 00:02:49;;;;;;;4.18;2.00;;;;;;;4.81;52.00;148519.59;5043427;28;20044;-64
2023/04/07 00:05:15;;;;;;;3.15;1.90;;;;;;;4.65;51.93;148480.03;5043420;28;20029;-66
2023/04/07 00:07:40;;;;;;;3.25;1.75;;;;;;;4.58;51.69;148462.16;5043659;28;20040;-66
2023/04/07 00:10:07;;;;;;;3.75;1.90;;;;;;;4.77;51.55;148508.13;5042216;28;20025;-67
2023/04/07 00:12:33;;;;;;;3.58;2.00;;;;;;;4.96;52.17;148555.34;5043194;28;20033;-65
2023/04/07 00:14:58;;;;;;;2.97;2.00;;;;;;;4.77;51.85;148508.13;5038700;28;20026;-66
2023/04/07 00:17:24;;;;;;;3.55;1.80;;;;;;;4.48;52.39;148436.66;5028872;28;20221;-66
2023/04/07 00:19:49;;;;;;;2.72;1.63;;;;;;;4.53;52.46;148448.13;5042402;28;20056;-66
2023/04/07 00:22:15;;;;;;;2.13;1.85;;;;;;;4.49;52.41;148440.47;5042400;28;20036;-66
2023/04/07 00:24:41;;;;;;;3.05;2.00;;;;;;;4.51;52.01;148444.31;5042687;28;20036;-68
2023/04/07 00:27:06;;;;;;;2.90;2.00;;;;;;;4.45;52.56;148430.25;5043527;28;20038;-66
2023/04/07 00:29:32;;;;;;;4.65;2.08;;;;;;;4.63;52.37;148473.63;5040004;28;20042;-66
2023/04/07 00:31:57;;;;;;;2.20;1.85;;;;;;;4.57;52.16;148459.59;5038031;28;20037;-64
2023/04/07 00:34:23;;;;;;;3.63;1.95;;;;;;;4.52;52.52;148446.88;5047239;28;20033;-65
2023/04/07 00:36:51;;;;;;;6.45;2.17;;;;;;;4.35;52.50;148403.44;5047087;28;20088;-65
2023/04/07 00:39:20;;;;;;;4.72;1.80;;;;;;;4.37;53.07;148408.56;5045987;28;20041;-64
2023/04/07 00:41:46;;;;;;;3.95;1.98;;;;;;;4.30;52.48;148391.97;5047017;28;20029;-66
2023/04/07 00:44:13;;;;;;;2.63;1.90;;;;;;;4.40;52.72;148416.22;5046877;28;20054;-65
2023/04/07 00:46:38;;;;;;;3.42;2.10;;;;;;;4.15;53.14;148355.00;5046915;28;20084;-65
2023/04/07 00:49:05;;;;;;;3.58;1.75;;;;;;;4.13;52.77;148349.84;5046479;28;20040;-65
2023/04/07 00:51:31;;;;;;;3.78;1.92;;;;;;;4.10;53.49;148343.47;5046695;28;20104;-65
2023/04/07 00:53:58;;;;;;;5.28;1.70;;;;;;;3.91;53.77;148296.28;5045972;28;20045;-65
2023/04/07 00:56:23;;;;;;;2.72;1.90;;;;;;;4.01;53.87;148319.28;5045962;28;20029;-66
2023/04/07 00:58:49;;;;;;;2.20;1.50;;;;;;;4.03;53.69;148324.34;5061806;28;20136;-65
2023/04/07 01:01:20;;;;;;;1.77;1.60;;;;;;;3.82;53.97;148272.03;5046741;28;20036;-65
2023/04/07 01:04:06;;;;;;;3.75;1.88;;;;;;;3.67;54.63;148236.34;5046107;28;20092;-65
2023/04/07 01:06:36;;;;;;;3.00;1.83;;;;;;;3.61;54.36;148222.31;5046192;28;20033;-65
2023/04/07 01:09:12;;;;;;;1.80;1.70;;;;;;;3.83;54.30;148274.59;5045782;28;20017;-64
2023/04/07 01:11:44;;;;;;;2.40;1.70;;;;;;;3.82;54.88;148273.34;5046457;28;20029;-65
2023/04/07 01:14:12;;;;;;;3.15;1.77;;;;;;;3.75;54.45;148255.50;5045788;28;20036;-65
2023/04/07 01:16:49;;;;;;;6.65;2.03;;;;;;;3.70;54.83;148242.72;5046385;28;20095;-66
2023/04/07 01:19:30;;;;;;;3.47;1.92;;;;;;;3.77;54.05;148260.56;5026498;28;20053;-64
2023/04/07 01:21:57;;;;;;;4.60;1.70;;;;;;;3.70;55.10;148242.72;5044100;28;20041;-67
2023/04/07 01:24:41;;;;;;;2.25;1.95;;;;;;;3.59;54.69;148217.22;5044968;28;20392;-65
2023/04/07 01:27:43;;;;;;;2.88;1.70;;;;;;;3.53;55.16;148201.91;5039230;28;20052;-66
2023/04/07 01:30:14;;;;;;;1.98;1.67;;;;;;;3.54;54.76;148204.47;5061244;28;20038;-65
2023/04/07 01:32:44;;;;;;;6.95;2.28;;;;;;;3.41;55.54;148172.59;5036399;28;20052;-66
2023/04/07 01:35:12;;;;;;;4.03;1.73;;;;;;;3.25;55.50;148133.06;5045343;28;20140;-66
2023/04/07 01:37:40;;;;;;;3.72;2.13;;;;;;;3.35;55.73;148156.00;5045925;28;20032;-65
2023/04/07 01:40:07;;;;;;;4.68;1.98;;;;;;;3.27;56.26;148136.88;5045293;28;20108;-65
2023/04/07 01:42:34;;;;;;;2.83;1.88;;;;;;;3.22;56.57;148125.44;5045830;28;20059;-64
2023/04/07 01:45:01;;;;;;;4.53;1.98;;;;;;;3.29;56.26;148141.97;5046057;28;20071;-65
2023/04/07 01:47:31;;;;;;;3.92;1.85;;;;;;;3.25;55.78;148133.06;5040075;28;20322;-65
2023/04/07 01:50:03;;;;;;;8.43;2.08;;;;;;;3.35;55.90;148157.28;5041521;28;20047;-66
2023/04/07 01:52:29;;;;;;;2.85;1.92;;;;;;;3.33;55.54;148150.91;5044730;28;20067;-66
2023/04/07 01:54:56;;;;;;;2.30;1.90;;;;;;;3.22;56.10;148124.13;5038579;28;20029;-65
2023/04/07 01:57:22;;;;;;;3.17;2.45;;;;;;;3.23;55.92;148127.94;5042899;28;20021;-66
2023/04/07 01:59:47;;;;;;;4.03;2.05;;;;;;;3.43;56.03;148177.72;5045104;28;20033;-66
2023/04/07 02:02:13;;;;;;;4.28;2.35;;;;;;;3.25;56.63;148133.06;5044937;28;20101;-66
2023/04/07 02:04:55;;;;;;;4.88;2.38;;;;;;;3.16;56.43;148108.84;5045284;28;20056;-67
2023/04/07 02:07:28;;;;;;;;;;;;;;;3.30;56.40;148143.28;5026025;28;20353;-67
2023/04/07 02:09:57;;;;;;;3.90;2.00;;;;;;;3.20;56.33;148120.31;5041766;28;19905;-66
2023/04/07 02:12:26;;;;;;;2.40;2.15;;;;;;;2.97;56.86;148062.94;5044571;28;20029;-67
2023/04/07 02:14:54;;;;;;;2.92;2.30;;;;;;;3.10;56.99;148096.06;5044461;28;20025;-67
2023/04/07 02:17:22;;;;;;;3.03;2.10;;;;;;;3.05;57.06;148082.03;5044770;28;20202;-66
2023/04/07 02:19:49;;;;;;;3.90;2.03;;;;;;;3.11;57.00;148098.63;5044928;28;20025;-67
2023/04/07 02:22:16;;;;;;;2.08;1.90;;;;;;;3.18;56.80;148115.22;5024803;28;20045;-66
2023/04/07 02:24:42;;;;;;;2.70;2.08;;;;;;;3.13;57.02;148102.47;5039089;28;20086;-67
2023/04/07 02:27:07;;;;;;;5.25;2.25;;;;;;;2.96;56.99;148059.13;5035709;28;20060;-66
2023/04/07 02:29:33;;;;;;;5.55;1.83;;;;;;;2.91;57.98;148047.66;5044801;28;20045;-66
2023/04/07 02:31:58;;;;;;;6.63;2.17;;;;;;;2.99;57.41;148068.03;5034516;28;20034;-67
2023/04/07 02:34:24;;;;;;;3.20;2.15;;;;;;;3.08;57.58;148089.75;5059800;28;20057;-67
2023/04/07 02:36:50;;;;;;;5.47;1.90;;;;;;;3.05;57.28;148083.34;5044348;28;20037;-66
2023/04/07 02:39:15;;;;;;;3.13;2.10;;;;;;;2.86;57.37;148036.16;5037636;28;20025;-66
2023/04/07 02:41:41;;;;;;;6.25;1.92;;;;;;;2.94;57.64;148055.31;5044721;28;20025;-65
2023/04/07 02:44:07;;;;;;;3.30;2.30;;;;;;;2.68;58.06;147990.28;5044449;28;20345;-66
2023/04/07 02:46:32;;;;;;;6.88;2.38;;;;;;;2.83;58.30;148027.25;5044368;28;20048;-66
2023/04/07 02:48:58;;;;;;;8.15;2.03;;;;;;;2.73;58.08;148004.31;5044517;28;20032;-67
2023/04/07 02:51:24;;;;;;;2.88;1.80;;;;;;;2.59;58.34;147968.63;5043755;28;20033;-66
2023/04/07 02:53:49;;;;;;;3.22;2.05;;;;;;;2.86;58.29;148036.16;5044371;28;20186;-65
2023/04/07 02:56:15;;;;;;;2.78;2.30;;;;;;;2.55;58.51;147959.75;5043355;28;20027;-64
2023/04/07 02:58:41;;;;;;;5.20;2.15;;;;;;;2.79;58.00;148018.31;5043440;28;20034;-65
2023/04/07 03:01:07;;;;;;;6.72;2.05;;;;;;;2.68;58.66;147990.28;5043331;28;20352;-66
2023/04/07 03:03:32;;;;;;;5.63;2.28;;;;;;;2.81;58.08;148023.44;5044270;28;20037;-64
2023/04/07 03:05:58;;;;;;;6.55;2.15;;;;;;;2.67;58.54;147987.78;5044327;28;20028;-67
2023/04/07 03:08:23;;;;;;;2.90;1.83;;;;;;;2.72;58.38;148001.78;5043422;28;20037;-66
2023/04/07 03:10:49;;;;;;;2.97;2.00;;;;;;;2.71;58.21;147997.97;5043926;28;20037;-64
2023/04/07 03:13:18;;;;;;;5.70;1.90;;;;;;;2.65;58.72;147982.66;5044065;28;20088;-65
2023/04/07 03:15:44;;;;;;;3.75;1.77;;;;;;;2.79;58.35;148017.06;5044202;28;20067;-65
2023/04/07 03:18:10;;;;;;;6.05;2.15;;;;;;;2.68;58.28;147991.59;5043641;28;20041;-64
2023/04/07 03:20:36;;;;;;;3.83;2.17;;;;;;;2.77;58.29;148013.25;5043861;28;20029;-65
2023/04/07 03:23:02;;;;;;;4.75;2.05;;;;;;;2.61;58.41;147973.75;5044349;28;20294;-64
2023/04/07 03:25:28;;;;;;;3.33;2.65;;;;;;;2.68;58.49;147990.28;5043578;28;20079;-65
2023/04/07 03:27:54;;;;;;;3.85;1.90;;;;;;;2.76;58.22;148010.69;5043771;28;20037;-67
2023/04/07 03:30:19;;;;;;;6.13;2.30;;;;;;;2.77;58.59;148013.25;5043156;28;20270;-66
2023/04/07 03:32:45;;;;;;;3.08;2.05;;;;;;;2.74;58.37;148006.88;5036889;28;20061;-65
2023/04/07 03:35:11;;;;;;;5.13;1.88;;;;;;;2.90;58.03;148046.38;5024818;28;20311;-65
2023/04/07 03:37:36;;;;;;;2.97;1.90;;;;;;;3.02;57.54;148074.41;5043687;28;20037;-65
2023/04/07 03:40:03;;;;;;;5.43;2.03;;;;;;;2.74;58.00;148005.59;5042445;28;20045;-64
2023/04/07 03:42:29;;;;;;;4.25;2.28;;;;;;;2.71;58.34;147997.97;5042170;28;20083;-65
2023/04/07 03:44:55;;;;;;;9.65;2.60;;;;;;;2.86;58.01;148034.91;5043657;28;20048;-66
2023/04/07 03:47:21;;;;;;;3.42;2.00;;;;;;;2.92;57.41;148050.19;5043350;28;20325;-68
2023/04/07 03:49:47;;;;;;;6.68;2.08;;;;;;;2.93;58.20;148054.00;5043639;28;20032;-68
2023/04/07 03:52:12;;;;;;;5.10;2.33;;;;;;;3.11;57.66;148097.38;5042346;28;20034;-68
2023/04/07 03:54:38;;;;;;;6.00;2.20;;;;;;;3.21;57.44;148122.88;5041740;28;20026;-65
2023/04/07 03:57:04;;;;;;;7.63;2.28;;;;;;;3.34;57.10;148154.72;5042675;28;20025;-66
2023/04/07 03:59:29;;;;;;;6.07;2.70;;;;;;;3.09;57.12;148092.25;5042947;28;20035;-65
2023/04/07 04:01:55;;;;;;;7.60;2.33;;;;;;;3.34;56.79;148153.47;5042547;28;20028;-68
2023/04/07 04:04:23;;;;;;;3.97;2.67;;;;;;;3.35;56.67;148157.28;5025284;28;20021;-68
2023/04/07 04:06:49;;;;;;;5.82;2.75;;;;;;;3.05;57.33;148083.34;5043333;28;20100;-68
2023/04/07 04:09:15;;;;;;;6.43;2.70;;;;;;;3.37;56.22;148161.13;5032783;28;20026;-68
2023/04/07 04:11:41;;;;;;;3.67;2.33;;;;;;;3.20;57.32;148119.03;5042097;28;20262;-68
2023/04/07 04:14:06;;;;;;;4.90;2.70;;;;;;;3.38;56.41;148163.69;5042870;28;20025;-68
2023/04/07 04:16:34;;;;;;;5.70;2.75;;;;;;;3.46;56.56;148184.03;5043040;28;20091;-68
2023/04/07 04:19:00;;;;;;;10.07;2.70;;;;;;;3.21;56.28;148121.59;5043072;28;20066;-67
2023/04/07 04:21:26;;;;;;;7.10;3.42;;;;;;;3.41;56.93;148172.59;5042653;28;20044;-68
2023/04/07 04:23:52;;;;;;;6.00;2.30;;;;;;;3.69;56.18;148240.16;5042412;28;20025;-68
2023/04/07 04:26:17;;;;;;;8.68;2.90;;;;;;;3.55;55.93;148205.72;5042468;28;20021;-66
2023/04/07 04:28:43;;;;;;;7.72;3.45;;;;;;;3.63;55.95;148227.44;5043194;28;20361;-68
2023/04/07 04:31:09;;;;;;;10.80;4.10;;;;;;;3.71;55.63;148245.28;5041854;28;20093;-68
2023/04/07 04:33:35;;;;;;;14.02;3.60;;;;;;;3.66;55.49;148233.78;5042949;28;20558;-67
2023/04/07 04:36:00;;;;;;;12.60;3.85;;;;;;;3.80;55.11;148268.22;5042331;28;20076;-69
2023/04/07 04:38:26;;;;;;;9.82;3.22;;;;;;;3.72;55.50;148247.81;5042635;28;20349;-68
2023/04/07 04:40:51;;;;;;;10.45;3.67;;;;;;;3.66;54.99;148232.50;5042080;28;20062;-66
2023/04/07 04:43:17;;;;;;;6.40;3.30;;;;;;;3.65;55.94;148231.25;5042087;28;20041;-67
2023/04/07 04:45:43;;;;;;;9.02;3.03;;;;;;;3.89;55.52;148291.22;5042613;28;20033;-67
2023/04/07 04:48:09;;;;;;;8.45;2.80;;;;;;;4.10;54.97;148343.47;5042491;28;20044;-68
2023/04/07 04:50:35;;;;;;;10.15;3.00;;;;;;;4.16;54.21;148357.50;5042063;28;20042;-67
2023/04/07 04:53:01;;;;;;;8.27;2.22;;;;;;;4.33;54.77;148399.63;5042675;28;20060;-67
2023/04/07 04:55:27;;;;;;;6.47;2.63;;;;;;;4.31;54.66;148395.78;5031879;28;20096;-68
2023/04/07 04:57:52;;;;;;;6.18;2.80;;;;;;;4.38;54.02;148412.41;5031602;28;20029;-66
2023/04/07 05:00:18;;;;;;;6.78;2.40;;;;;;;4.33;54.05;148399.63;5033024;28;20253;-65
2023/04/07 05:02:45;;;;;;;9.43;2.20;;;;;;;4.25;53.77;148380.50;5042565;28;20250;-66
2023/04/07 05:05:11;;;;;;;8.88;2.63;;;;;;;4.23;54.10;148374.09;5041859;28;20025;-65
2023/04/07 05:07:39;;;;;;;8.20;2.40;;;;;;;4.44;53.55;148427.69;5042719;28;20025;-65
2023/04/07 05:10:06;;;;;;;7.10;3.45;;;;;;;4.51;53.11;148444.31;5041867;28;20022;-66
2023/04/07 05:12:31;;;;;;;8.57;3.38;;;;;;;4.57;53.59;148458.34;5041546;28;20041;-66
2023/04/07 05:14:57;;;;;;;12.25;2.47;;;;;;;4.76;52.84;148505.53;5045280;28;20038;-65
2023/04/07 05:17:23;;;;;;;8.15;2.35;;;;;;;4.73;53.06;148499.22;5045989;28;20146;-66
2023/04/07 05:19:48;;;;;;;10.10;2.53;;;;;;;4.83;52.59;148524.72;5045965;28;20218;-66
2023/04/07 05:22:14;;;;;;;7.35;2.42;;;;;;;4.88;51.76;148536.19;5045516;28;20079;-65
2023/04/07 05:24:40;;;;;;;5.22;3.35;;;;;;;4.88;52.03;148536.19;5045213;28;20025;-66
2023/04/07 05:27:05;;;;;;;8.20;2.78;;;;;;;4.92;51.14;148546.41;5045880;28;20056;-65
2023/04/07 05:29:31;;;;;;;5.30;2.83;;;;;;;5.20;51.74;148615.34;5045774;28;20100;-66
2023/04/07 05:31:56;;;;;;;3.58;1.98;;;;;;;5.26;51.20;148630.69;5035227;28;20030;-65
2023/04/07 05:34:22;;;;;;;5.43;2.33;;;;;;;5.25;50.54;148626.88;5043162;28;20049;-67
2023/04/07 05:36:49;;;;;;;3.92;2.75;;;;;;;5.19;51.36;148612.81;5045688;28;20198;-65
2023/04/07 05:39:15;;;;;;;4.55;2.58;;;;;;;5.23;50.87;148623.03;5045855;28;20034;-65
2023/04/07 05:41:41;;;;;;;5.05;2.60;;;;;;;5.53;50.76;148698.38;5044855;28;20056;-64
2023/04/07 05:44:06;;;;;;;5.97;2.58;;;;;;;5.99;49.48;148812.13;5045764;28;20029;-66
2023/04/07 05:46:32;;;;;;;3.95;2.30;;;;;;;6.23;48.27;148870.94;5045512;28;20029;-66
2023/04/07 05:48:58;;;;;;;5.85;2.60;;;;;;;6.72;48.06;148992.34;5028004;28;20021;-67
2023/04/07 05:51:23;;;;;;;6.93;1.98;;;;;;;6.90;47.01;149037.13;5034984;28;20283;-66
2023/04/07 05:53:49;;;;;;;7.45;2.08;;;;;;;6.81;46.82;149015.38;5032087;28;20029;-65
2023/04/07 05:56:14;;;;;;;7.25;2.33;;;;;;;7.03;45.91;149070.34;5042079;28;20156;-65
2023/04/07 05:58:40;;;;;;;9.43;2.33;;;;;;;7.35;46.01;149149.63;5030090;28;20039;-66
2023/04/07 06:01:06;;;;;;;8.63;2.70;;;;;;;7.55;45.34;149198.25;5039969;28;20036;-66
2023/04/07 06:03:31;;;;;;;3.72;2.25;;;;;;;7.29;45.40;149134.28;5035196;28;20084;-66
2023/04/07 06:05:57;;;;;;;5.95;2.30;;;;;;;7.75;44.42;149249.47;5033043;28;20213;-65
2023/04/07 06:08:23;;;;;;;4.15;2.35;;;;;;;7.44;45.14;149171.41;5047590;28;20028;-65
2023/04/07 06:10:48;;;;;;;5.85;2.28;;;;;;;7.52;44.72;149191.84;5037554;28;20032;-66
2023/04/07 06:13:14;;;;;;;7.00;2.05;;;;;;;7.81;44.28;149262.22;5045331;28;20029;-64
2023/04/07 06:15:40;;;;;;;7.82;2.58;;;;;;;7.74;44.68;149245.63;5044798;28;20032;-66
2023/04/07 06:18:05;;;;;;;5.88;2.53;;;;;;;8.01;43.69;149312.13;5044414;28;20340;-66
2023/04/07 06:20:31;;;;;;;6.45;2.30;;;;;;;8.43;44.52;149418.38;5044511;28;20037;-66
2023/04/07 06:22:56;;;;;;;3.63;2.65;;;;;;;8.66;43.56;149473.50;5044901;28;20067;-65
2023/04/07 06:25:22;;;;;;;7.30;2.75;;;;;;;9.05;43.02;149570.81;5043059;28;20076;-65
2023/04/07 06:27:48;;;;;;;9.02;2.00;;;;;;;8.99;42.90;149556.72;5044486;28;20056;-65
2023/04/07 06:30:14;;;;;;;3.55;2.15;;;;;;;8.84;41.98;149518.34;5038619;28;20310;-65
2023/04/07 06:32:39;;;;;;;9.02;2.63;;;;;;;9.21;42.86;149610.56;5033356;28;20045;-66
2023/04/07 06:35:06;;;;;;;8.80;3.00;;;;;;;9.76;41.83;149747.66;5032371;28;20060;-65
2023/04/07 06:37:31;;;;;;;9.43;2.75;;;;;;;9.99;40.92;149805.31;5032358;28;20026;-66
2023/04/07 06:39:57;;;;;;;8.85;2.63;;;;;;;10.60;39.96;149957.94;5032072;28;20033;-66
2023/04/07 06:42:22;;;;;;;5.07;2.35;;;;;;;11.21;38.27;150110.59;5037741;28;20029;-68
2023/04/07 06:44:48;;;;;;;7.50;2.60;;;;;;;10.96;38.63;150047.75;5033560;28;20029;-67
2023/04/07 06:47:14;;;;;;;8.18;2.50;;;;;;;10.49;38.28;149929.78;5034580;28;20298;-66
2023/04/07 06:49:40;;;;;;;9.85;2.25;;;;;;;10.10;38.34;149833.53;5035674;28;20199;-67
2023/04/07 06:52:05;;;;;;;7.20;2.33;;;;;;;9.47;40.18;149677.16;5033553;28;20056;-67
2023/04/07 06:54:31;;;;;;;6.30;2.25;;;;;;;9.84;39.47;149768.16;5033200;28;20030;-68
2023/04/07 06:56:57;;;;;;;7.80;2.38;;;;;;;10.04;39.88;149818.16;5037755;28;20029;-67
2023/04/07 06:59:22;;;;;;;7.07;2.58;;;;;;;10.99;39.58;150054.19;5033289;28;20030;-68
2023/04/07 07:01:48;;;;;;;4.88;2.30;;;;;;;11.35;37.47;150143.97;5050569;28;20267;-69
2023/04/07 07:04:14;;;;;;;10.93;2.67;;;;;;;11.63;38.02;150214.56;5032693;28;20056;-69
2023/04/07 07:06:39;;;;;;;9.77;3.38;;;;;;;11.90;36.40;150281.34;5032730;28;20025;-68
2023/04/07 07:09:05;;;;;;;6.78;2.40;;;;;;;12.07;36.71;150323.69;5032452;28;20025;-67
2023/04/07 07:11:31;;;;;;;3.75;2.38;;;;;;;12.48;35.85;150426.44;5037120;28;20176;-67
2023/04/07 07:13:56;;;;;;;5.50;2.13;;;;;;;12.34;34.65;150390.47;5035603;28;20092;-67
2023/04/07 07:16:24;;;;;;;4.82;1.80;;;;;;;13.23;35.98;150612.75;5035003;28;20013;-67
2023/04/07 07:18:50;;;;;;;9.88;2.38;;;;;;;13.95;33.31;150794.03;5032527;28;20106;-68
2023/04/07 07:21:20;;;;;;;9.68;2.78;;;;;;;14.63;33.77;150963.78;5037494;28;20048;-65
2023/04/07 07:23:45;;;;;;;7.22;2.63;;;;;;;14.87;32.11;151021.72;5039111;28;20022;-67
2023/04/07 07:26:11;;;;;;;8.65;2.28;;;;;;;15.49;31.77;151178.72;5032853;28;20028;-68
2023/04/07 07:28:37;;;;;;;7.70;2.22;;;;;;;13.76;33.04;150746.44;5038304;28;20096;-67
2023/04/07 07:31:13;;;;;;;5.65;2.40;;;;;;;13.21;33.13;150608.88;5043539;28;20067;-67
2023/04/07 07:33:40;;;;;;;5.43;2.50;;;;;;;12.19;33.73;150353.25;5031208;28;20559;-66
2023/04/07 07:36:06;;;;;;;7.15;2.72;;;;;;;11.99;35.02;150303.19;5036357;28;20092;-68
2023/04/07 07:38:32;;;;;;;5.22;2.20;;;;;;;12.53;33.41;150439.28;5040244;28;20068;-67
2023/04/07 07:40:58;;;;;;;7.38;2.25;;;;;;;12.39;33.85;150404.59;5030812;28;20053;-67
2023/04/07 07:43:23;;;;;;;6.90;2.22;;;;;;;12.99;34.22;150552.34;5040280;28;20020;-66
2023/04/07 07:45:49;;;;;;;10.02;2.58;;;;;;;11.84;34.90;150267.22;5040984;28;20036;-67
2023/04/07 07:48:15;;;;;;;4.68;1.83;;;;;;;11.96;34.85;150296.78;5042394;28;20380;-66
2023/04/07 07:50:41;;;;;;;8.00;2.60;;;;;;;12.51;33.90;150434.19;5036723;28;20044;-67
2023/04/07 07:53:07;;;;;;;13.13;2.80;;;;;;;12.98;34.33;150551.03;5042337;28;20029;-68
2023/04/07 07:55:32;;;;;;;4.53;2.15;;;;;;;12.33;33.94;150387.94;5042767;28;20033;-67
2023/04/07 07:57:58;;;;;;;4.50;1.50;;;;;;;11.61;33.08;150209.41;5033346;28;20097;-67
2023/04/07 08:00:23;;;;;;;4.05;1.80;;;;;;;11.87;32.59;150273.59;5032144;28;20199;-65
2023/04/07 08:02:49;;;;;;;3.63;1.42;;;;;;;11.18;33.31;150101.63;5043233;28;20029;-67
2023/04/07 08:05:14;;;;;;;3.28;1.60;;;;;;;10.82;34.61;150013.13;5029940;28;20214;-67
2023/04/07 08:07:41;;;;;;;5.72;1.60;;;;;;;11.04;33.82;150068.28;5042557;28;20075;-67
2023/04/07 08:10:08;;;;;;;5.97;1.40;;;;;;;11.02;33.94;150063.13;5042843;28;20045;-66
2023/04/07 08:12:34;;;;;;;4.18;1.80;;;;;;;11.92;33.23;150287.72;5042932;28;20041;-67
2023/04/07 08:15:00;;;;;;;5.35;1.55;;;;;;;11.33;32.76;150138.81;5042205;28;20037;-67
2023/04/07 08:17:25;;;;;;;12.10;2.58;;;;;;;11.55;33.58;150195.28;5041284;28;20255;-66
2023/04/07 08:19:51;;;;;;;6.03;1.80;;;;;;;10.65;34.27;149970.78;5022979;28;20054;-66
2023/04/07 08:22:19;;;;;;;3.70;1.40;;;;;;;10.57;33.13;149950.25;5038753;28;20202;-67
2023/04/07 08:24:46;;;;;;;4.57;1.60;;;;;;;10.50;33.76;149932.31;5058690;28;20190;-68
2023/04/07 08:27:12;;;;;;;3.90;1.50;;;;;;;10.77;33.38;149999.00;5035170;28;20037;-67
2023/04/07 08:29:38;;;;;;;6.70;1.60;;;;;;;10.16;35.06;149848.94;5025716;28;20041;-66
2023/04/07 08:32:04;;;;;;;5.25;1.60;;;;;;;10.68;33.63;149977.22;5042615;28;20048;-67
2023/04/07 08:34:29;;;;;;;3.47;1.77;;;;;;;10.66;33.57;149972.06;5024389;28;20038;-66
2023/04/07 08:36:55;;;;;;;4.97;1.63;;;;;;;10.47;33.62;149924.63;5039955;28;20037;-66
2023/04/07 08:39:21;;;;;;;4.20;2.22;;;;;;;10.98;33.97;150051.59;5036700;28;20040;-67
2023/04/07 08:41:49;;;;;;;7.93;2.00;;;;;;;11.24;33.54;150117.00;5033131;28;20034;-67
2023/04/07 08:44:16;;;;;;;6.88;1.80;;;;;;;11.62;33.09;150210.72;5035262;28;20096;-66
2023/04/07 08:46:42;;;;;;;5.63;1.80;;;;;;;11.20;33.40;150108.06;5031955;28;20112;-67
2023/04/07 08:49:10;;;;;;;3.58;1.50;;;;;;;10.53;33.95;149940.00;5034856;28;20046;-66
2023/04/07 08:51:37;;;;;;;7.75;1.77;;;;;;;11.15;33.52;150095.22;5032679;28;20037;-68
2023/04/07 08:54:10;;;;;;;4.63;1.60;;;;;;;11.39;33.07;150154.25;5034786;28;20025;-67
2023/04/07 08:56:41;;;;;;;5.80;2.00;;;;;;;10.80;32.92;150006.69;5032821;28;20116;-69
2023/04/07 08:59:12;;;;;;;5.20;1.75;;;;;;;11.26;32.69;150122.19;5037906;28;20038;-68
2023/04/07 09:01:39;;;;;;;5.15;1.60;;;;;;;10.89;33.17;150029.81;5036511;28;20029;-68
2023/04/07 09:04:06;;;;;;;5.20;1.73;;;;;;;11.27;33.13;150123.44;5035778;28;20036;-68
2023/04/07 09:06:33;;;;;;;4.45;1.70;;;;;;;11.07;33.63;150074.66;5037000;28;20029;-67
2023/04/07 09:08:59;;;;;;;2.95;1.40;;;;;;;10.36;33.71;149897.66;5035007;28;20021;-68
2023/04/07 09:11:26;;;;;;;6.32;2.10;;;;;;;10.77;33.32;149999.00;5033666;28;20021;-69
2023/04/07 09:13:52;;;;;;;3.17;1.52;;;;;;;11.22;32.58;150113.16;5034588;28;20021;-68
2023/04/07 09:16:18;;;;;;;2.90;1.65;;;;;;;11.40;32.95;150156.78;5036830;28;20038;-67
2023/04/07 09:18:43;;;;;;;2.05;1.40;;;;;;;11.11;33.45;150083.69;5037607;28;20029;-69
2023/04/07 09:21:10;;;;;;;3.42;1.60;;;;;;;10.88;33.60;150028.50;5034548;28;20095;-67
2023/04/07 09:23:40;;;;;;;4.32;1.38;;;;;;;10.76;33.68;149996.44;5037687;28;20088;-67
2023/04/07 09:26:27;;;;;;;4.70;2.22;;;;;;;11.40;33.59;150156.78;5036691;28;20025;-68
2023/04/07 09:28:58;;;;;;;4.82;1.77;;;;;;;11.04;33.29;150066.97;5040290;28;20029;-67
2023/04/07 09:31:50;;;;;;;2.72;1.52;;;;;;;11.14;32.68;150092.63;5045257;28;20044;-69
2023/04/07 09:34:29;;;;;;;5.32;1.77;;;;;;;11.11;33.39;150084.94;5029493;28;20038;-69
2023/04/07 09:36:56;;;;;;;2.17;1.65;;;;;;;10.49;33.65;149931.03;5026189;28;20029;-69
2023/04/07 09:39:22;;;;;;;1.90;1.60;;;;;;;10.42;34.02;149913.09;5034118;28;20218;-68
2023/04/07 09:41:47;;;;;;;5.65;1.90;;;;;;;10.70;34.46;149982.31;5045408;28;20096;-67
2023/04/07 09:44:13;;;;;;;2.22;1.30;;;;;;;11.09;32.99;150078.50;5061338;28;20298;-67
2023/04/07 09:46:52;;;;;;;2.60;1.58;;;;;;;11.43;34.89;150164.53;5036701;28;20030;-68
2023/04/07 09:49:21;;;;;;;3.30;1.58;;;;;;;10.68;32.97;149978.47;5025010;28;20041;-67
2023/04/07 09:52:03;;;;;;;3.35;1.52;;;;;;;10.56;33.37;149946.41;5031684;28;20037;-67
2023/04/07 09:54:34;;;;;;;7.03;2.25;;;;;;;10.64;34.33;149966.94;5050248;28;20064;-69
2023/04/07 09:57:01;;;;;;;4.85;1.90;;;;;;;10.54;34.03;149942.56;5034554;28;20021;-68
2023/04/07 09:59:28;;;;;;;4.05;1.75;;;;;;;11.17;33.63;150100.38;5032926;28;20060;-68
2023/04/07 10:01:54;;;;;;;2.08;1.38;;;;;;;11.45;33.41;150169.63;5035727;28;20052;-69
2023/04/07 10:04:21;;;;;;;4.68;1.85;;;;;;;11.01;33.27;150060.56;5035280;28;20047;-69
2023/04/07 10:06:47;;;;;;;3.30;1.60;;;;;;;10.92;33.68;150036.22;5035952;28;20124;-68
2023/04/07 10:09:13;;;;;;;4.93;1.92;;;;;;;11.03;33.60;150064.41;5037131;28;20096;-69
2023/04/07 10:11:41;;;;;;;3.45;1.77;;;;;;;11.48;33.49;150177.31;5035974;28;20037;-68
2023/04/07 10:14:09;;;;;;;5.28;2.10;;;;;;;11.20;32.98;150108.06;5035769;28;20115;-68
2023/04/07 10:16:37;;;;;;;6.32;1.95;;;;;;;11.02;33.03;150061.88;5048998;28;20064;-68
2023/04/07 10:19:05;;;;;;;4.15;1.50;;;;;;;10.88;32.81;150028.50;5034297;28;20250;-68
2023/04/07 10:21:36;;;;;;;8.45;2.35;;;;;;;11.15;33.79;150095.22;5037779;28;20025;-67
2023/04/07 10:24:18;;;;;;;3.25;1.83;;;;;;;11.03;32.71;150065.72;5040121;28;20042;-68
2023/04/07 10:26:50;;;;;;;2.95;1.85;;;;;;;10.44;33.34;149918.19;5032177;28;20069;-67
2023/04/07 10:29:18;;;;;;;8.40;2.08;;;;;;;10.71;33.04;149984.91;5033548;28;20029;-68
2023/04/07 10:31:45;;;;;;;5.32;1.80;;;;;;;10.89;33.18;150029.81;5037565;28;20041;-68
2023/04/07 10:34:11;;;;;;;4.38;1.52;;;;;;;11.11;32.90;150083.69;5033081;28;20042;-68
2023/04/07 10:37:12;;;;;;;6.30;1.77;;;;;;;11.19;33.25;150104.22;5035733;28;20253;-67
2023/04/07 10:39:38;;;;;;;4.55;1.60;;;;;;;11.59;33.52;150204.31;5033923;28;20310;-68
2023/04/07 10:42:03;;;;;;;6.63;1.88;;;;;;;11.33;31.97;150138.81;5033345;28;20028;-67
2023/04/07 10:44:38;;;;;;;8.82;1.98;;;;;;;11.57;32.57;150199.13;5034018;28;20030;-68
2023/04/07 10:47:05;;;;;;;3.47;1.60;;;;;;;11.46;32.37;150172.22;5034532;28;20022;-69
2023/04/07 10:49:32;;;;;;;4.80;2.10;;;;;;;11.82;32.53;150260.78;5034251;28;20038;-67
2023/04/07 10:52:10;;;;;;;7.70;1.67;;;;;;;11.49;31.80;150178.63;5037711;28;20380;-68
2023/04/07 10:54:36;;;;;;;5.95;2.03;;;;;;;11.63;32.47;150213.25;5033930;28;20029;-69
2023/04/07 10:57:02;;;;;;;4.05;1.83;;;;;;;11.78;32.49;150251.78;5034858;28;20329;-69
2023/04/07 10:59:28;;;;;;;9.60;1.88;;;;;;;11.69;31.98;150229.97;5033035;28;20030;-68
2023/04/07 11:02:23;;;;;;;2.78;1.60;;;;;;;11.20;31.58;150108.06;5048094;28;20029;-69
2023/04/07 11:04:49;;;;;;;2.97;1.60;;;;;;;10.96;31.49;150047.75;5030322;28;20073;-66
2023/04/07 11:07:15;;;;;;;7.50;1.50;;;;;;;11.19;32.22;150104.22;5035048;28;20025;-69
2023/04/07 11:09:41;;;;;;;5.55;2.17;;;;;;;11.28;31.95;150127.28;5036875;28;20029;-69
2023/04/07 11:12:07;;;;;;;6.97;1.58;;;;;;;11.28;32.07;150126.03;5035417;28;20032;-68
2023/04/07 11:14:36;;;;;;;4.50;1.90;;;;;;;11.37;32.07;150150.41;5034474;28;20041;-68
2023/04/07 11:17:02;;;;;;;3.88;1.65;;;;;;;11.45;31.83;150168.38;5034367;28;20021;-69
2023/04/07 11:19:31;;;;;;;6.22;1.90;;;;;;;11.63;31.78;150213.25;5034490;28;20026;-68
2023/04/07 11:22:15;;;;;;;2.22;1.77;;;;;;;11.31;32.38;150134.97;5036165;28;20071;-68
2023/04/07 11:24:42;;;;;;;2.95;1.70;;;;;;;11.58;32.29;150201.72;5033642;28;20030;-67
2023/04/07 11:27:14;;;;;;;27.48;11.85;;;;;;;12.03;32.51;150313.47;5030833;28;20055;-68
2023/04/07 11:29:39;;;;;;;12.48;3.33;;;;;;;12.04;32.14;150316.00;5035807;28;20083;-68